CheckWX is a tool to help pilots better visualize weather data.  It is not intended as a substitute for an official pre-flight weather briefing.

09:57:04 UTC

ESSV METAR
Visby Airport
Visby, Sweden
Current

37 mins ago

ESSV 210920Z 22018KT 9999 FEW013 BKN046 08/05 Q1020 R21/29//68
Observed
Mar-21 @ 09:20 UTC
Wind
  • 220° at 18 KTS
Visibility
10,000+ meters
Flight Rules
VFR
Cloud Levels
  • Few at 1,300' AGL
  • Broken at 4,600' AGL
Temperature
C / 46°F
Dewpoint
C / 41°F
Humidity
82%
Altimeter
30.12" Hg
Pressure
1019.92 hPa
Previous

1 hour ago

ESSV 210850Z 22015KT 9999 SCT041 BKN055 07/05 Q1021 R21/29//68
Observed
Mar-21 @ 08:50 UTC
Wind
  • 220° at 15 KTS
Visibility
10,000+ meters
Flight Rules
VFR
Cloud Levels
  • Scattered at 4,100' AGL
  • Broken at 5,500' AGL
Temperature
C / 45°F
Dewpoint
C / 41°F
Humidity
87%
Altimeter
30.15" Hg
Pressure
1020.92 hPa
Previous

2 hours ago

ESSV 210820Z 22017KT CAVOK 07/04 Q1021 R21/29//68
Observed
Mar-21 @ 08:20 UTC
Wind
  • 220° at 17 KTS
Visibility
10,000+ meters
Flight Rules
VFR
Cloud Levels
  • Clear skies
Temperature
C / 45°F
Dewpoint
C / 39°F
Humidity
81%
Altimeter
30.15" Hg
Pressure
1020.92 hPa